sensor_id;sensor_type;location;lat;lon;timestamp;P1;durP1;ratioP1;P2;durP2;ratioP2
22334;SDS011;11335;43.848;25.958;2023-03-01T00:02:12;34.10;;;19.63;;
22334;SDS011;11335;43.848;25.958;2023-03-01T00:04:58;34.65;;;19.85;;
22334;SDS011;11335;43.848;25.958;2023-03-01T00:07:44;34.53;;;19.63;;
22334;SDS011;11335;43.848;25.958;2023-03-01T00:10:29;34.53;;;19.92;;
22334;SDS011;11335;43.848;25.958;2023-03-01T00:13:15;37.75;;;20.63;;
22334;SDS011;11335;43.848;25.958;2023-03-01T00:16:04;36.22;;;20.75;;
22334;SDS011;11335;43.848;25.958;2023-03-01T00:18:51;35.08;;;20.27;;
22334;SDS011;11335;43.848;25.958;2023-03-01T00:21:36;35.85;;;20.80;;
22334;SDS011;11335;43.848;25.958;2023-03-01T00:24:22;37.65;;;21.25;;
22334;SDS011;11335;43.848;25.958;2023-03-01T00:27:07;40.17;;;21.40;;
22334;SDS011;11335;43.848;25.958;2023-03-01T00:29:53;40.33;;;21.63;;
22334;SDS011;11335;43.848;25.958;2023-03-01T00:32:38;36.50;;;20.45;;
22334;SDS011;11335;43.848;25.958;2023-03-01T00:35:24;41.80;;;21.75;;
22334;SDS011;11335;43.848;25.958;2023-03-01T00:38:10;39.05;;;21.63;;
22334;SDS011;11335;43.848;25.958;2023-03-01T00:40:55;38.28;;;21.10;;
22334;SDS011;11335;43.848;25.958;2023-03-01T00:43:41;41.03;;;21.38;;
22334;SDS011;11335;43.848;25.958;2023-03-01T00:46:26;36.13;;;20.92;;
22334;SDS011;11335;43.848;25.958;2023-03-01T00:49:12;44.78;;;22.52;;
22334;SDS011;11335;43.848;25.958;2023-03-01T00:51:58;41.83;;;23.08;;
22334;SDS011;11335;43.848;25.958;2023-03-01T00:54:44;39.80;;;22.73;;
22334;SDS011;11335;43.848;25.958;2023-03-01T00:57:29;38.10;;;21.20;;
22334;SDS011;11335;43.848;25.958;2023-03-01T01:00:15;39.85;;;22.05;;
22334;SDS011;11335;43.848;25.958;2023-03-01T01:03:01;39.65;;;23.10;;
22334;SDS011;11335;43.848;25.958;2023-03-01T01:05:46;43.47;;;24.05;;
22334;SDS011;11335;43.848;25.958;2023-03-01T01:08:32;42.83;;;23.48;;
22334;SDS011;11335;43.848;25.958;2023-03-01T01:11:18;44.63;;;24.70;;
22334;SDS011;11335;43.848;25.958;2023-03-01T01:14:04;49.13;;;25.20;;
22334;SDS011;11335;43.848;25.958;2023-03-01T01:16:49;50.63;;;27.17;;
22334;SDS011;11335;43.848;25.958;2023-03-01T01:19:35;52.00;;;26.48;;
22334;SDS011;11335;43.848;25.958;2023-03-01T01:22:20;63.13;;;30.65;;
22334;SDS011;11335;43.848;25.958;2023-03-01T01:25:06;70.20;;;31.98;;
22334;SDS011;11335;43.848;25.958;2023-03-01T01:27:52;73.47;;;35.33;;
22334;SDS011;11335;43.848;25.958;2023-03-01T01:30:37;83.45;;;36.13;;
22334;SDS011;11335;43.848;25.958;2023-03-01T01:33:23;78.15;;;35.00;;
22334;SDS011;11335;43.848;25.958;2023-03-01T01:36:09;81.00;;;35.03;;
22334;SDS011;11335;43.848;25.958;2023-03-01T01:38:54;77.60;;;34.03;;
22334;SDS011;11335;43.848;25.958;2023-03-01T01:41:40;69.65;;;34.33;;
22334;SDS011;11335;43.848;25.958;2023-03-01T01:44:27;74.78;;;34.20;;
22334;SDS011;11335;43.848;25.958;2023-03-01T01:47:17;69.22;;;32.75;;
22334;SDS011;11335;43.848;25.958;2023-03-01T01:50:04;70.30;;;33.78;;
22334;SDS011;11335;43.848;25.958;2023-03-01T01:52:50;66.20;;;30.95;;
22334;SDS011;11335;43.848;25.958;2023-03-01T01:55:36;67.65;;;31.52;;
22334;SDS011;11335;43.848;25.958;2023-03-01T01:58:26;71.65;;;32.90;;
22334;SDS011;11335;43.848;25.958;2023-03-01T02:01:12;70.82;;;33.45;;
22334;SDS011;11335;43.848;25.958;2023-03-01T02:03:58;64.60;;;31.83;;
22334;SDS011;11335;43.848;25.958;2023-03-01T02:06:52;65.88;;;30.55;;
22334;SDS011;11335;43.848;25.958;2023-03-01T02:09:40;60.17;;;31.35;;
22334;SDS011;11335;43.848;25.958;2023-03-01T02:12:26;59.17;;;30.35;;
22334;SDS011;11335;43.848;25.958;2023-03-01T02:15:12;59.20;;;30.10;;
22334;SDS011;11335;43.848;25.958;2023-03-01T02:17:57;64.07;;;31.98;;
22334;SDS011;11335;43.848;25.958;2023-03-01T02:20:52;66.68;;;32.60;;
22334;SDS011;11335;43.848;25.958;2023-03-01T02:23:41;65.32;;;31.98;;
22334;SDS011;11335;43.848;25.958;2023-03-01T02:29:16;66.18;;;32.58;;
22334;SDS011;11335;43.848;25.958;2023-03-01T02:32:02;63.85;;;31.77;;
22334;SDS011;11335;43.848;25.958;2023-03-01T02:34:48;66.50;;;33.10;;
22334;SDS011;11335;43.848;25.958;2023-03-01T02:37:34;67.60;;;34.38;;
22334;SDS011;11335;43.848;25.958;2023-03-01T02:40:23;68.60;;;31.98;;
22334;SDS011;11335;43.848;25.958;2023-03-01T02:43:09;64.70;;;31.60;;
22334;SDS011;11335;43.848;25.958;2023-03-01T02:45:57;63.85;;;30.55;;
22334;SDS011;11335;43.848;25.958;2023-03-01T02:48:44;72.30;;;33.78;;
22334;SDS011;11335;43.848;25.958;2023-03-01T02:57:07;67.68;;;32.88;;
22334;SDS011;11335;43.848;25.958;2023-03-01T02:59:54;65.45;;;33.70;;
22334;SDS011;11335;43.848;25.958;2023-03-01T03:02:40;67.15;;;32.53;;
22334;SDS011;11335;43.848;25.958;2023-03-01T03:05:27;64.20;;;32.60;;
22334;SDS011;11335;43.848;25.958;2023-03-01T03:08:13;66.97;;;33.45;;
22334;SDS011;11335;43.848;25.958;2023-03-01T03:10:59;64.10;;;32.45;;
22334;SDS011;11335;43.848;25.958;2023-03-01T03:13:45;62.65;;;32.88;;
22334;SDS011;11335;43.848;25.958;2023-03-01T03:16:33;64.22;;;32.58;;
22334;SDS011;11335;43.848;25.958;2023-03-01T03:19:19;64.88;;;32.67;;
22334;SDS011;11335;43.848;25.958;2023-03-01T03:22:04;66.32;;;32.72;;
22334;SDS011;11335;43.848;25.958;2023-03-01T03:24:50;64.82;;;33.05;;
22334;SDS011;11335;43.848;25.958;2023-03-01T03:27:36;65.05;;;34.08;;
22334;SDS011;11335;43.848;25.958;2023-03-01T03:30:24;63.03;;;32.95;;
22334;SDS011;11335;43.848;25.958;2023-03-01T03:33:10;63.85;;;34.42;;
22334;SDS011;11335;43.848;25.958;2023-03-01T03:35:56;63.95;;;32.75;;
22334;SDS011;11335;43.848;25.958;2023-03-01T03:38:42;62.97;;;33.15;;
22334;SDS011;11335;43.848;25.958;2023-03-01T03:41:27;64.78;;;33.75;;
22334;SDS011;11335;43.848;25.958;2023-03-01T03:44:13;64.13;;;33.17;;
22334;SDS011;11335;43.848;25.958;2023-03-01T03:46:58;66.28;;;33.40;;
22334;SDS011;11335;43.848;25.958;2023-03-01T03:49:44;69.03;;;33.95;;
22334;SDS011;11335;43.848;25.958;2023-03-01T03:52:29;67.57;;;33.42;;
22334;SDS011;11335;43.848;25.958;2023-03-01T03:55:15;63.63;;;32.95;;
22334;SDS011;11335;43.848;25.958;2023-03-01T03:58:05;64.93;;;33.90;;
22334;SDS011;11335;43.848;25.958;2023-03-01T04:00:55;63.33;;;32.08;;
22334;SDS011;11335;43.848;25.958;2023-03-01T04:03:43;67.75;;;32.80;;
22334;SDS011;11335;43.848;25.958;2023-03-01T04:06:31;65.07;;;33.42;;
22334;SDS011;11335;43.848;25.958;2023-03-01T04:09:17;61.92;;;32.22;;
22334;SDS011;11335;43.848;25.958;2023-03-01T04:12:03;64.88;;;32.63;;
22334;SDS011;11335;43.848;25.958;2023-03-01T04:14:48;62.92;;;32.25;;
22334;SDS011;11335;43.848;25.958;2023-03-01T04:17:34;62.40;;;33.25;;
22334;SDS011;11335;43.848;25.958;2023-03-01T04:20:21;66.05;;;33.38;;
22334;SDS011;11335;43.848;25.958;2023-03-01T04:23:11;71.50;;;32.83;;
22334;SDS011;11335;43.848;25.958;2023-03-01T04:25:58;65.68;;;33.50;;
22334;SDS011;11335;43.848;25.958;2023-03-01T04:28:44;69.88;;;33.90;;
22334;SDS011;11335;43.848;25.958;2023-03-01T04:31:31;64.93;;;32.75;;
22334;SDS011;11335;43.848;25.958;2023-03-01T04:34:16;63.72;;;31.90;;
22334;SDS011;11335;43.848;25.958;2023-03-01T04:37:02;66.15;;;33.00;;
22334;SDS011;11335;43.848;25.958;2023-03-01T04:39:48;67.85;;;34.10;;
22334;SDS011;11335;43.848;25.958;2023-03-01T04:42:33;60.85;;;31.20;;
22334;SDS011;11335;43.848;25.958;2023-03-01T04:45:19;64.30;;;33.05;;
22334;SDS011;11335;43.848;25.958;2023-03-01T04:48:04;63.28;;;33.95;;
22334;SDS011;11335;43.848;25.958;2023-03-01T04:50:50;62.53;;;33.25;;
22334;SDS011;11335;43.848;25.958;2023-03-01T04:53:36;62.75;;;33.97;;
22334;SDS011;11335;43.848;25.958;2023-03-01T04:56:22;62.35;;;31.75;;
22334;SDS011;11335;43.848;25.958;2023-03-01T04:59:08;68.13;;;34.50;;
22334;SDS011;11335;43.848;25.958;2023-03-01T05:01:55;65.05;;;33.55;;
22334;SDS011;11335;43.848;25.958;2023-03-01T05:04:41;62.13;;;32.65;;
22334;SDS011;11335;43.848;25.958;2023-03-01T05:07:26;59.97;;;31.75;;
22334;SDS011;11335;43.848;25.958;2023-03-01T05:10:12;56.78;;;30.42;;
22334;SDS011;11335;43.848;25.958;2023-03-01T05:12:58;63.88;;;32.50;;
22334;SDS011;11335;43.848;25.958;2023-03-01T05:15:44;69.65;;;33.25;;
22334;SDS011;11335;43.848;25.958;2023-03-01T05:18:30;63.70;;;32.60;;
22334;SDS011;11335;43.848;25.958;2023-03-01T05:21:16;61.03;;;31.85;;
22334;SDS011;11335;43.848;25.958;2023-03-01T05:24:02;61.22;;;32.67;;
22334;SDS011;11335;43.848;25.958;2023-03-01T05:26:48;63.63;;;32.50;;
22334;SDS011;11335;43.848;25.958;2023-03-01T05:29:33;58.25;;;30.65;;
22334;SDS011;11335;43.848;25.958;2023-03-01T05:32:20;67.50;;;33.70;;
22334;SDS011;11335;43.848;25.958;2023-03-01T05:35:06;65.30;;;32.80;;
22334;SDS011;11335;43.848;25.958;2023-03-01T05:37:51;62.45;;;32.40;;
22334;SDS011;11335;43.848;25.958;2023-03-01T05:40:37;64.45;;;31.98;;
22334;SDS011;11335;43.848;25.958;2023-03-01T05:43:23;61.33;;;31.95;;
22334;SDS011;11335;43.848;25.958;2023-03-01T05:46:09;63.75;;;31.70;;
22334;SDS011;11335;43.848;25.958;2023-03-01T05:48:57;65.47;;;32.67;;
22334;SDS011;11335;43.848;25.958;2023-03-01T05:51:43;63.97;;;32.28;;
22334;SDS011;11335;43.848;25.958;2023-03-01T05:54:32;63.30;;;31.67;;
22334;SDS011;11335;43.848;25.958;2023-03-01T05:57:18;60.30;;;32.20;;
22334;SDS011;11335;43.848;25.958;2023-03-01T06:00:04;59.47;;;31.45;;
22334;SDS011;11335;43.848;25.958;2023-03-01T06:02:52;69.20;;;34.72;;
22334;SDS011;11335;43.848;25.958;2023-03-01T06:05:38;71.53;;;34.15;;
22334;SDS011;11335;43.848;25.958;2023-03-01T06:08:24;68.45;;;34.83;;
22334;SDS011;11335;43.848;25.958;2023-03-01T06:11:12;70.72;;;35.25;;
22334;SDS011;11335;43.848;25.958;2023-03-01T06:13:57;68.55;;;33.97;;
22334;SDS011;11335;43.848;25.958;2023-03-01T06:16:43;68.43;;;34.30;;
22334;SDS011;11335;43.848;25.958;2023-03-01T06:19:29;72.22;;;35.88;;
22334;SDS011;11335;43.848;25.958;2023-03-01T06:22:14;70.78;;;35.40;;
22334;SDS011;11335;43.848;25.958;2023-03-01T06:25:00;67.15;;;36.20;;
22334;SDS011;11335;43.848;25.958;2023-03-01T06:27:46;70.63;;;33.30;;
22334;SDS011;11335;43.848;25.958;2023-03-01T06:30:32;72.88;;;35.58;;
22334;SDS011;11335;43.848;25.958;2023-03-01T06:33:18;72.82;;;35.20;;
22334;SDS011;11335;43.848;25.958;2023-03-01T06:36:05;64.88;;;32.60;;
22334;SDS011;11335;43.848;25.958;2023-03-01T06:38:51;68.47;;;34.10;;
22334;SDS011;11335;43.848;25.958;2023-03-01T06:41:36;69.03;;;34.97;;
22334;SDS011;11335;43.848;25.958;2023-03-01T06:44:22;68.00;;;33.70;;
22334;SDS011;11335;43.848;25.958;2023-03-01T06:47:07;75.85;;;35.00;;
22334;SDS011;11335;43.848;25.958;2023-03-01T06:49:53;71.05;;;35.10;;
22334;SDS011;11335;43.848;25.958;2023-03-01T06:52:39;67.80;;;32.97;;
22334;SDS011;11335;43.848;25.958;2023-03-01T06:55:24;74.13;;;33.20;;
22334;SDS011;11335;43.848;25.958;2023-03-01T06:58:10;69.82;;;32.95;;
22334;SDS011;11335;43.848;25.958;2023-03-01T07:00:56;67.45;;;33.30;;
22334;SDS011;11335;43.848;25.958;2023-03-01T07:03:42;66.63;;;33.13;;
22334;SDS011;11335;43.848;25.958;2023-03-01T07:06:29;68.07;;;33.83;;
22334;SDS011;11335;43.848;25.958;2023-03-01T07:09:15;67.55;;;33.15;;
22334;SDS011;11335;43.848;25.958;2023-03-01T07:12:05;67.55;;;34.72;;
22334;SDS011;11335;43.848;25.958;2023-03-01T07:14:50;67.38;;;33.88;;
22334;SDS011;11335;43.848;25.958;2023-03-01T07:17:36;71.50;;;34.80;;
22334;SDS011;11335;43.848;25.958;2023-03-01T07:20:21;71.68;;;35.65;;
22334;SDS011;11335;43.848;25.958;2023-03-01T07:23:09;68.05;;;33.53;;
22334;SDS011;11335;43.848;25.958;2023-03-01T07:25:55;61.72;;;32.20;;
22334;SDS011;11335;43.848;25.958;2023-03-01T07:28:40;61.08;;;32.00;;
22334;SDS011;11335;43.848;25.958;2023-03-01T07:31:26;67.25;;;33.78;;
22334;SDS011;11335;43.848;25.958;2023-03-01T07:34:13;63.10;;;31.98;;
22334;SDS011;11335;43.848;25.958;2023-03-01T07:36:58;66.05;;;33.00;;
22334;SDS011;11335;43.848;25.958;2023-03-01T07:39:44;64.95;;;33.33;;
22334;SDS011;11335;43.848;25.958;2023-03-01T07:42:30;62.03;;;32.22;;
22334;SDS011;11335;43.848;25.958;2023-03-01T07:45:15;68.13;;;33.75;;
22334;SDS011;11335;43.848;25.958;2023-03-01T07:48:01;66.20;;;35.85;;
22334;SDS011;11335;43.848;25.958;2023-03-01T07:50:46;68.18;;;36.15;;
22334;SDS011;11335;43.848;25.958;2023-03-01T07:53:33;66.03;;;35.03;;
22334;SDS011;11335;43.848;25.958;2023-03-01T07:56:19;63.55;;;35.33;;
22334;SDS011;11335;43.848;25.958;2023-03-01T07:59:06;72.47;;;37.28;;
22334;SDS011;11335;43.848;25.958;2023-03-01T08:01:52;61.83;;;32.63;;
22334;SDS011;11335;43.848;25.958;2023-03-01T08:04:37;63.42;;;33.63;;
22334;SDS011;11335;43.848;25.958;2023-03-01T08:07:23;56.20;;;30.02;;
22334;SDS011;11335;43.848;25.958;2023-03-01T08:10:09;54.25;;;30.55;;
22334;SDS011;11335;43.848;25.958;2023-03-01T08:12:55;60.28;;;31.80;;
22334;SDS011;11335;43.848;25.958;2023-03-01T08:15:40;59.40;;;31.38;;
22334;SDS011;11335;43.848;25.958;2023-03-01T08:18:26;55.10;;;29.45;;
22334;SDS011;11335;43.848;25.958;2023-03-01T08:21:13;53.88;;;30.02;;
22334;SDS011;11335;43.848;25.958;2023-03-01T08:23:58;50.55;;;28.55;;
22334;SDS011;11335;43.848;25.958;2023-03-01T08:26:44;53.83;;;29.88;;
22334;SDS011;11335;43.848;25.958;2023-03-01T08:29:30;52.05;;;28.00;;
22334;SDS011;11335;43.848;25.958;2023-03-01T08:32:16;57.35;;;29.88;;
22334;SDS011;11335;43.848;25.958;2023-03-01T08:35:01;55.78;;;29.40;;
22334;SDS011;11335;43.848;25.958;2023-03-01T08:37:47;53.25;;;29.20;;
22334;SDS011;11335;43.848;25.958;2023-03-01T08:40:33;56.15;;;29.67;;
22334;SDS011;11335;43.848;25.958;2023-03-01T08:43:18;54.63;;;29.88;;
22334;SDS011;11335;43.848;25.958;2023-03-01T08:46:04;52.60;;;28.77;;
22334;SDS011;11335;43.848;25.958;2023-03-01T08:48:49;52.53;;;27.77;;
22334;SDS011;11335;43.848;25.958;2023-03-01T08:51:35;47.75;;;27.55;;
22334;SDS011;11335;43.848;25.958;2023-03-01T08:54:22;49.20;;;27.88;;
22334;SDS011;11335;43.848;25.958;2023-03-01T08:57:07;49.88;;;27.25;;
22334;SDS011;11335;43.848;25.958;2023-03-01T08:59:55;48.50;;;27.85;;
22334;SDS011;11335;43.848;25.958;2023-03-01T09:02:41;55.20;;;30.30;;
22334;SDS011;11335;43.848;25.958;2023-03-01T09:05:27;58.05;;;31.48;;
22334;SDS011;11335;43.848;25.958;2023-03-01T09:08:12;57.22;;;30.52;;
22334;SDS011;11335;43.848;25.958;2023-03-01T09:10:58;56.60;;;30.02;;
22334;SDS011;11335;43.848;25.958;2023-03-01T09:13:47;52.88;;;29.05;;
22334;SDS011;11335;43.848;25.958;2023-03-01T09:16:33;61.78;;;31.58;;
22334;SDS011;11335;43.848;25.958;2023-03-01T09:19:21;59.88;;;30.42;;
22334;SDS011;11335;43.848;25.958;2023-03-01T09:22:06;64.53;;;32.15;;
22334;SDS011;11335;43.848;25.958;2023-03-01T09:24:52;61.20;;;32.08;;
22334;SDS011;11335;43.848;25.958;2023-03-01T09:27:37;55.95;;;29.95;;
22334;SDS011;11335;43.848;25.958;2023-03-01T09:30:23;57.42;;;31.67;;
22334;SDS011;11335;43.848;25.958;2023-03-01T09:33:09;55.70;;;30.63;;
22334;SDS011;11335;43.848;25.958;2023-03-01T09:36:04;55.53;;;30.45;;
22334;SDS011;11335;43.848;25.958;2023-03-01T09:38:49;58.03;;;30.45;;
22334;SDS011;11335;43.848;25.958;2023-03-01T09:44:36;63.08;;;32.42;;
22334;SDS011;11335;43.848;25.958;2023-03-01T09:50:12;58.03;;;30.58;;
22334;SDS011;11335;43.848;25.958;2023-03-01T09:53:12;56.17;;;29.42;;
22334;SDS011;11335;43.848;25.958;2023-03-01T09:55:59;57.88;;;29.20;;
22334;SDS011;11335;43.848;25.958;2023-03-01T09:58:59;55.83;;;28.55;;
22334;SDS011;11335;43.848;25.958;2023-03-01T10:04:47;55.03;;;29.05;;
22334;SDS011;11335;43.848;25.958;2023-03-01T10:10:29;53.72;;;28.35;;
22334;SDS011;11335;43.848;25.958;2023-03-01T10:16:21;48.20;;;26.58;;
22334;SDS011;11335;43.848;25.958;2023-03-01T10:19:14;44.33;;;24.38;;
22334;SDS011;11335;43.848;25.958;2023-03-01T10:22:03;47.22;;;25.20;;
22334;SDS011;11335;43.848;25.958;2023-03-01T10:24:51;47.13;;;26.85;;
22334;SDS011;11335;43.848;25.958;2023-03-01T10:27:39;49.97;;;27.00;;
22334;SDS011;11335;43.848;25.958;2023-03-01T10:30:39;46.45;;;24.45;;
22334;SDS011;11335;43.848;25.958;2023-03-01T10:33:29;46.47;;;24.60;;
22334;SDS011;11335;43.848;25.958;2023-03-01T10:36:15;40.53;;;23.90;;
22334;SDS011;11335;43.848;25.958;2023-03-01T10:39:00;39.95;;;22.45;;
22334;SDS011;11335;43.848;25.958;2023-03-01T10:41:56;44.50;;;24.23;;
22334;SDS011;11335;43.848;25.958;2023-03-01T10:44:43;45.72;;;24.25;;
22334;SDS011;11335;43.848;25.958;2023-03-01T10:47:30;42.10;;;23.20;;
22334;SDS011;11335;43.848;25.958;2023-03-01T10:50:20;41.50;;;22.35;;
22334;SDS011;11335;43.848;25.958;2023-03-01T10:53:10;41.20;;;22.48;;
22334;SDS011;11335;43.848;25.958;2023-03-01T11:01:44;40.25;;;21.40;;
22334;SDS011;11335;43.848;25.958;2023-03-01T11:04:29;36.42;;;19.88;;
22334;SDS011;11335;43.848;25.958;2023-03-01T11:07:15;36.17;;;20.52;;
22334;SDS011;11335;43.848;25.958;2023-03-01T11:10:04;38.47;;;19.42;;
22334;SDS011;11335;43.848;25.958;2023-03-01T11:13:13;37.28;;;20.85;;
22334;SDS011;11335;43.848;25.958;2023-03-01T11:18:45;31.38;;;18.23;;
22334;SDS011;11335;43.848;25.958;2023-03-01T11:22:01;37.65;;;19.25;;
22334;SDS011;11335;43.848;25.958;2023-03-01T11:24:47;40.72;;;21.40;;
22334;SDS011;11335;43.848;25.958;2023-03-01T11:27:36;41.95;;;18.65;;
22334;SDS011;11335;43.848;25.958;2023-03-01T11:36:16;34.22;;;17.55;;
22334;SDS011;11335;43.848;25.958;2023-03-01T11:39:07;35.85;;;18.27;;
22334;SDS011;11335;43.848;25.958;2023-03-01T11:42:00;36.25;;;17.85;;
22334;SDS011;11335;43.848;25.958;2023-03-01T11:44:47;36.13;;;18.33;;
22334;SDS011;11335;43.848;25.958;2023-03-01T11:50:44;29.90;;;16.73;;
22334;SDS011;11335;43.848;25.958;2023-03-01T11:56:38;30.95;;;15.80;;
22334;SDS011;11335;43.848;25.958;2023-03-01T11:59:35;33.47;;;17.08;;
22334;SDS011;11335;43.848;25.958;2023-03-01T12:08:38;28.88;;;14.60;;
22334;SDS011;11335;43.848;25.958;2023-03-01T12:29:34;44.08;;;21.77;;
22334;SDS011;11335;43.848;25.958;2023-03-01T12:44:15;38.55;;;21.20;;
22334;SDS011;11335;43.848;25.958;2023-03-01T12:47:12;41.88;;;21.88;;
22334;SDS011;11335;43.848;25.958;2023-03-01T12:50:03;43.35;;;22.63;;
22334;SDS011;11335;43.848;25.958;2023-03-01T12:52:51;41.28;;;21.50;;
22334;SDS011;11335;43.848;25.958;2023-03-01T12:55:37;40.47;;;21.40;;
22334;SDS011;11335;43.848;25.958;2023-03-01T12:58:26;39.65;;;21.58;;
22334;SDS011;11335;43.848;25.958;2023-03-01T13:15:43;31.13;;;18.20;;
22334;SDS011;11335;43.848;25.958;2023-03-01T13:18:29;32.08;;;17.98;;
22334;SDS011;11335;43.848;25.958;2023-03-01T13:21:15;34.22;;;19.60;;
22334;SDS011;11335;43.848;25.958;2023-03-01T13:29:58;29.65;;;16.60;;
22334;SDS011;11335;43.848;25.958;2023-03-01T13:32:50;29.05;;;15.48;;
22334;SDS011;11335;43.848;25.958;2023-03-01T13:35:42;28.23;;;15.57;;
22334;SDS011;11335;43.848;25.958;2023-03-01T13:49:59;34.88;;;19.08;;
22334;SDS011;11335;43.848;25.958;2023-03-01T13:52:46;34.50;;;18.60;;
22334;SDS011;11335;43.848;25.958;2023-03-01T13:58:26;35.83;;;19.15;;
22334;SDS011;11335;43.848;25.958;2023-03-01T14:07:08;39.00;;;21.08;;
22334;SDS011;11335;43.848;25.958;2023-03-01T14:09:55;37.05;;;20.17;;
22334;SDS011;11335;43.848;25.958;2023-03-01T14:15:37;35.10;;;19.40;;
22334;SDS011;11335;43.848;25.958;2023-03-01T14:18:30;35.70;;;18.83;;
22334;SDS011;11335;43.848;25.958;2023-03-01T14:21:21;38.90;;;20.75;;
22334;SDS011;11335;43.848;25.958;2023-03-01T14:24:17;37.90;;;21.63;;
22334;SDS011;11335;43.848;25.958;2023-03-01T14:27:09;39.95;;;22.00;;
22334;SDS011;11335;43.848;25.958;2023-03-01T14:29:59;38.35;;;19.52;;
22334;SDS011;11335;43.848;25.958;2023-03-01T14:32:52;38.72;;;19.88;;
22334;SDS011;11335;43.848;25.958;2023-03-01T14:35:38;39.67;;;20.38;;
22334;SDS011;11335;43.848;25.958;2023-03-01T14:38:40;33.72;;;19.88;;
22334;SDS011;11335;43.848;25.958;2023-03-01T14:41:26;36.55;;;20.40;;
22334;SDS011;11335;43.848;25.958;2023-03-01T14:44:21;35.30;;;19.85;;
22334;SDS011;11335;43.848;25.958;2023-03-01T14:47:15;40.78;;;22.55;;
22334;SDS011;11335;43.848;25.958;2023-03-01T14:50:02;40.70;;;22.23;;
22334;SDS011;11335;43.848;25.958;2023-03-01T14:52:51;34.78;;;20.25;;
22334;SDS011;11335;43.848;25.958;2023-03-01T14:55:37;33.83;;;19.58;;
22334;SDS011;11335;43.848;25.958;2023-03-01T14:58:25;36.10;;;20.10;;
22334;SDS011;11335;43.848;25.958;2023-03-01T15:01:13;37.85;;;20.05;;
22334;SDS011;11335;43.848;25.958;2023-03-01T15:03:59;36.78;;;20.70;;
22334;SDS011;11335;43.848;25.958;2023-03-01T15:06:47;44.58;;;23.17;;
22334;SDS011;11335;43.848;25.958;2023-03-01T15:09:33;36.97;;;21.30;;
22334;SDS011;11335;43.848;25.958;2023-03-01T15:18:27;35.83;;;21.08;;
22334;SDS011;11335;43.848;25.958;2023-03-01T15:21:16;38.70;;;21.60;;
22334;SDS011;11335;43.848;25.958;2023-03-01T15:24:06;33.25;;;20.63;;
22334;SDS011;11335;43.848;25.958;2023-03-01T15:26:57;35.08;;;20.67;;
22334;SDS011;11335;43.848;25.958;2023-03-01T15:29:48;37.88;;;20.75;;
22334;SDS011;11335;43.848;25.958;2023-03-01T15:32:35;38.97;;;20.90;;
22334;SDS011;11335;43.848;25.958;2023-03-01T15:35:40;34.42;;;20.80;;
22334;SDS011;11335;43.848;25.958;2023-03-01T15:38:49;36.67;;;21.63;;
22334;SDS011;11335;43.848;25.958;2023-03-01T15:41:46;36.15;;;21.92;;
22334;SDS011;11335;43.848;25.958;2023-03-01T15:44:33;39.05;;;22.40;;
22334;SDS011;11335;43.848;25.958;2023-03-01T15:47:23;41.83;;;22.73;;
22334;SDS011;11335;43.848;25.958;2023-03-01T15:50:29;41.65;;;22.98;;
22334;SDS011;11335;43.848;25.958;2023-03-01T15:53:14;36.13;;;20.50;;
22334;SDS011;11335;43.848;25.958;2023-03-01T15:56:00;36.25;;;21.67;;
22334;SDS011;11335;43.848;25.958;2023-03-01T15:58:46;42.00;;;23.77;;
22334;SDS011;11335;43.848;25.958;2023-03-01T16:01:31;39.08;;;21.95;;
22334;SDS011;11335;43.848;25.958;2023-03-01T16:04:19;36.55;;;20.25;;
22334;SDS011;11335;43.848;25.958;2023-03-01T16:07:08;41.20;;;22.67;;
22334;SDS011;11335;43.848;25.958;2023-03-01T16:09:55;38.75;;;22.95;;
22334;SDS011;11335;43.848;25.958;2023-03-01T16:12:40;39.70;;;22.42;;
22334;SDS011;11335;43.848;25.958;2023-03-01T16:15:30;37.70;;;21.27;;
22334;SDS011;11335;43.848;25.958;2023-03-01T16:18:16;40.90;;;24.02;;
22334;SDS011;11335;43.848;25.958;2023-03-01T16:21:01;48.38;;;25.40;;
22334;SDS011;11335;43.848;25.958;2023-03-01T16:23:47;44.50;;;25.23;;
22334;SDS011;11335;43.848;25.958;2023-03-01T16:26:33;45.08;;;24.50;;
22334;SDS011;11335;43.848;25.958;2023-03-01T16:29:18;54.45;;;28.95;;
22334;SDS011;11335;43.848;25.958;2023-03-01T16:32:04;89.47;;;41.85;;
22334;SDS011;11335;43.848;25.958;2023-03-01T16:34:50;57.33;;;27.63;;
22334;SDS011;11335;43.848;25.958;2023-03-01T16:37:35;42.72;;;24.27;;
22334;SDS011;11335;43.848;25.958;2023-03-01T16:40:22;48.63;;;29.35;;
22334;SDS011;11335;43.848;25.958;2023-03-01T16:43:10;48.30;;;25.08;;
22334;SDS011;11335;43.848;25.958;2023-03-01T16:45:56;42.22;;;24.55;;
22334;SDS011;11335;43.848;25.958;2023-03-01T16:48:42;45.85;;;25.65;;
22334;SDS011;11335;43.848;25.958;2023-03-01T16:51:27;42.50;;;24.58;;
22334;SDS011;11335;43.848;25.958;2023-03-01T16:54:15;46.80;;;26.60;;
22334;SDS011;11335;43.848;25.958;2023-03-01T16:57:00;47.28;;;27.35;;
22334;SDS011;11335;43.848;25.958;2023-03-01T16:59:46;46.00;;;24.17;;
22334;SDS011;11335;43.848;25.958;2023-03-01T17:02:31;44.40;;;24.42;;
22334;SDS011;11335;43.848;25.958;2023-03-01T17:05:17;47.13;;;24.95;;
22334;SDS011;11335;43.848;25.958;2023-03-01T17:08:03;50.50;;;27.20;;
22334;SDS011;11335;43.848;25.958;2023-03-01T17:10:48;81.30;;;39.33;;
22334;SDS011;11335;43.848;25.958;2023-03-01T17:13:34;41.63;;;22.50;;
22334;SDS011;11335;43.848;25.958;2023-03-01T17:16:20;49.03;;;26.23;;
22334;SDS011;11335;43.848;25.958;2023-03-01T17:19:06;44.80;;;25.13;;
22334;SDS011;11335;43.848;25.958;2023-03-01T17:21:52;48.42;;;25.27;;
22334;SDS011;11335;43.848;25.958;2023-03-01T17:24:37;44.03;;;23.85;;
22334;SDS011;11335;43.848;25.958;2023-03-01T17:27:23;44.88;;;25.25;;
22334;SDS011;11335;43.848;25.958;2023-03-01T17:30:11;49.13;;;25.83;;
22334;SDS011;11335;43.848;25.958;2023-03-01T17:32:57;46.85;;;26.08;;
22334;SDS011;11335;43.848;25.958;2023-03-01T17:35:42;60.63;;;32.38;;
22334;SDS011;11335;43.848;25.958;2023-03-01T17:38:30;55.00;;;32.47;;
22334;SDS011;11335;43.848;25.958;2023-03-01T17:41:16;49.65;;;27.73;;
22334;SDS011;11335;43.848;25.958;2023-03-01T17:44:06;46.92;;;26.40;;
22334;SDS011;11335;43.848;25.958;2023-03-01T17:46:51;51.03;;;28.83;;
22334;SDS011;11335;43.848;25.958;2023-03-01T17:49:37;50.17;;;27.85;;
22334;SDS011;11335;43.848;25.958;2023-03-01T17:52:22;45.53;;;26.08;;
22334;SDS011;11335;43.848;25.958;2023-03-01T17:55:08;49.28;;;26.45;;
22334;SDS011;11335;43.848;25.958;2023-03-01T17:57:54;46.20;;;23.80;;
22334;SDS011;11335;43.848;25.958;2023-03-01T18:00:40;43.35;;;23.88;;
22334;SDS011;11335;43.848;25.958;2023-03-01T18:03:25;43.40;;;23.85;;
22334;SDS011;11335;43.848;25.958;2023-03-01T18:06:15;43.83;;;23.75;;
22334;SDS011;11335;43.848;25.958;2023-03-01T18:09:01;41.60;;;23.27;;
22334;SDS011;11335;43.848;25.958;2023-03-01T18:11:46;48.63;;;25.40;;
22334;SDS011;11335;43.848;25.958;2023-03-01T18:14:32;42.88;;;24.77;;